Time;durP1;ratioP1;P1;durP2;ratioP2;P2;SDS_P1;SDS_P2;PMS_P1;PMS_P2;Temp;Humidity;BMP_temperature;BMP_pressure;BME280_temperature;BME280_humidity;BME280_pressure;Samples;Min_cycle;Max_cycle;Signal;HPM_P1;HPM_P2
2022/07/09 00:02:22;;;;;;;5.93;3.92;;;;;;;21.41;83.98;100014.69;4974074;28;20027;-79
2022/07/09 00:04:48;;;;;;;5.65;3.40;;;;;;;21.41;83.85;100005.06;5009557;28;20049;-79
2022/07/09 00:07:13;;;;;;;5.43;3.67;;;;;;;21.32;85.05;99992.06;5009729;28;20042;-78
2022/07/09 00:09:39;;;;;;;6.93;3.63;;;;;;;21.37;84.65;99997.25;5010123;28;20121;-79
2022/07/09 00:12:05;;;;;;;5.15;3.38;;;;;;;21.24;85.62;99993.94;4993452;28;20120;-79
2022/07/09 00:14:30;;;;;;;5.57;3.47;;;;;;;21.10;85.43;99945.13;5010325;28;20042;-79
2022/07/09 00:16:57;;;;;;;4.70;3.70;;;;;;;21.13;86.17;99952.09;5008591;28;20068;-79
2022/07/09 00:19:22;;;;;;;5.05;3.53;;;;;;;20.90;86.37;99919.19;4993156;28;20049;-80
2022/07/09 00:21:47;;;;;;;4.82;3.80;;;;;;;20.76;86.64;99897.53;4993270;28;20026;-82
2022/07/09 00:24:13;;;;;;;7.03;3.53;;;;;;;21.24;86.74;99983.44;5009446;28;20069;-83
2022/07/09 00:26:38;;;;;;;4.88;3.38;;;;;;;21.19;87.42;99996.63;4993233;28;20030;-80
2022/07/09 00:29:04;;;;;;;4.60;3.35;;;;;;;20.98;87.87;99967.16;4993181;28;20033;-81
2022/07/09 00:31:29;;;;;;;6.53;3.63;;;;;;;20.95;88.94;99977.72;4993172;28;20037;-80
2022/07/09 00:33:55;;;;;;;6.50;3.78;;;;;;;20.98;88.35;99938.28;5009222;28;20130;-80
2022/07/09 00:36:20;;;;;;;5.88;4.28;;;;;;;20.67;88.48;99895.88;4965513;28;20051;-79
2022/07/09 00:38:45;;;;;;;5.10;3.67;;;;;;;20.96;88.90;99961.09;4973258;28;20050;-80
2022/07/09 00:41:11;;;;;;;4.55;3.70;;;;;;;20.82;90.26;99956.03;4972795;28;20030;-81
2022/07/09 00:43:36;;;;;;;4.57;3.55;;;;;;;20.85;90.00;99957.75;4972688;28;20054;-81
2022/07/09 00:46:02;;;;;;;5.25;4.00;;;;;;;20.81;89.95;99940.28;4952521;28;20023;-81
2022/07/09 00:48:27;;;;;;;5.63;4.00;;;;;;;20.79;89.62;99939.47;4962026;28;20074;-80
2022/07/09 00:50:53;;;;;;;4.75;4.15;;;;;;;20.53;91.15;99946.72;4955114;28;20054;-81
2022/07/09 00:53:24;;;;;;;7.13;4.22;;;;;;;20.18;92.53;99903.47;4972458;28;20429;-81
2022/07/09 00:55:51;;;;;;;4.35;3.65;;;;;;;20.33;92.94;99946.13;4963320;28;20558;-80
2022/07/09 00:58:18;;;;;;;5.68;3.92;;;;;;;20.14;94.36;99956.81;4968537;28;20461;-83
2022/07/09 01:00:44;;;;;;;6.63;4.15;;;;;;;20.20;94.14;99937.53;4972708;28;20023;-82
2022/07/09 01:03:10;;;;;;;5.30;4.05;;;;;;;20.03;94.63;99948.19;4972436;28;20458;-80
2022/07/09 01:05:35;;;;;;;6.28;3.97;;;;;;;20.02;95.25;99949.06;4972167;28;20035;-80
2022/07/09 01:08:06;;;;;;;6.35;4.25;;;;;;;19.91;95.39;99933.44;4972472;28;20038;-80
2022/07/09 01:10:33;;;;;;;4.75;4.20;;;;;;;20.06;95.02;99944.69;4972102;28;20026;-80
2022/07/09 01:12:59;;;;;;;7.35;4.22;;;;;;;20.07;95.35;99952.50;4971111;28;20101;-80
2022/07/09 01:15:24;;;;;;;5.10;3.92;;;;;;;19.91;95.92;99935.22;4972188;28;20023;-79
2022/07/09 01:17:52;;;;;;;7.18;4.40;;;;;;;19.85;95.49;99909.94;4972007;28;20038;-82
2022/07/09 01:20:31;;;;;;;6.50;4.07;;;;;;;19.72;96.17;99930.13;4954869;28;20503;-80
2022/07/09 01:22:57;;;;;;;4.72;4.22;;;;;;;19.82;95.93;99921.28;4987040;28;20035;-82
2022/07/09 01:25:45;;;;;;;5.78;4.15;;;;;;;20.07;95.48;99947.28;4954647;28;20461;-79
2022/07/09 01:28:11;;;;;;;5.15;4.00;;;;;;;19.75;95.63;99905.66;4970641;28;20467;-82
2022/07/09 01:30:39;;;;;;;4.90;3.85;;;;;;;20.03;95.62;99953.44;4954282;28;20022;-81
2022/07/09 01:33:05;;;;;;;5.10;4.40;;;;;;;20.07;95.45;99952.50;4971978;28;20035;-79
2022/07/09 01:35:31;;;;;;;5.05;4.22;;;;;;;20.15;94.67;99955.03;4972036;28;20022;-81
2022/07/09 01:37:57;;;;;;;5.50;4.07;;;;;;;19.99;95.16;99944.75;4954391;28;20054;-80
2022/07/09 01:40:23;;;;;;;5.85;4.22;;;;;;;20.19;95.10;99946.28;4971932;28;20391;-77
2022/07/09 01:42:49;;;;;;;7.35;4.05;;;;;;;20.15;94.23;99940.22;4971556;28;20034;-76
2022/07/09 01:45:15;;;;;;;6.15;4.38;;;;;;;20.23;94.03;99953.22;4952455;28;20046;-76
2022/07/09 01:47:41;;;;;;;4.78;4.07;;;;;;;20.28;94.03;99961.91;4963718;28;20540;-76
2022/07/09 01:50:08;;;;;;;4.88;4.00;;;;;;;20.19;94.08;99948.91;4971977;28;20113;-75
2022/07/09 01:52:33;;;;;;;4.82;4.15;;;;;;;20.31;94.03;99974.09;4935721;28;20118;-76
2022/07/09 01:54:59;;;;;;;6.60;3.83;;;;;;;20.10;92.92;99918.44;4933355;29;20117;-75
2022/07/09 01:57:26;;;;;;;8.95;4.18;;;;;;;20.51;92.10;99979.09;4932083;29;20024;-77
2022/07/09 01:59:51;;;;;;;6.35;3.97;;;;;;;20.64;91.12;99985.94;4934395;29;21338;-77
2022/07/09 02:02:17;;;;;;;8.70;4.00;;;;;;;20.75;90.46;99980.63;4939455;29;20173;-76
2022/07/09 02:04:42;;;;;;;4.57;3.80;;;;;;;20.89;89.44;99974.31;4936503;29;20040;-77
2022/07/09 02:07:08;;;;;;;4.53;3.50;;;;;;;20.59;88.13;99903.00;4934825;29;20090;-82
2022/07/09 02:09:33;;;;;;;3.90;3.45;;;;;;;20.91;87.63;99935.78;4933413;29;20012;-75
2022/07/09 02:11:59;;;;;;;6.53;3.95;;;;;;;21.13;86.85;99973.09;4932970;29;20032;-76
2022/07/09 02:14:24;;;;;;;7.43;3.90;;;;;;;21.11;87.02;99974.88;4932422;29;20535;-76
2022/07/09 02:16:50;;;;;;;5.68;3.97;;;;;;;21.23;86.83;99989.59;4940517;28;20039;-76
2022/07/09 02:19:15;;;;;;;6.65;3.53;;;;;;;21.23;85.52;99989.59;4935052;29;20028;-76
2022/07/09 02:21:40;;;;;;;6.78;3.75;;;;;;;21.15;86.09;99997.56;4929711;29;20046;-80
2022/07/09 02:24:07;;;;;;;6.85;4.18;;;;;;;21.16;85.28;99979.16;4949267;28;20082;-77
2022/07/09 02:26:32;;;;;;;6.32;3.35;;;;;;;21.33;84.64;99985.91;4950306;28;20036;-78
2022/07/09 02:28:58;;;;;;;4.40;3.70;;;;;;;20.67;85.15;99911.59;4949252;28;20031;-77
2022/07/09 02:31:25;;;;;;;4.97;3.50;;;;;;;21.27;85.06;99992.16;4982374;28;20034;-78
2022/07/09 02:33:51;;;;;;;4.95;3.97;;;;;;;21.42;84.59;99985.78;4988168;28;20155;-79
2022/07/09 02:36:16;;;;;;;3.83;3.35;;;;;;;20.93;84.04;99944.50;4987813;28;20077;-78
2022/07/09 02:38:42;;;;;;;5.30;3.63;;;;;;;21.22;84.17;99972.09;4988456;28;20065;-78
2022/07/09 02:41:07;;;;;;;4.43;3.47;;;;;;;21.25;83.48;99965.03;4975597;28;20035;-79
2022/07/09 02:43:33;;;;;;;7.38;3.63;;;;;;;21.33;83.14;99964.91;4991880;28;20486;-79
2022/07/09 02:45:58;;;;;;;7.07;3.28;;;;;;;21.11;83.23;99927.63;4992131;28;20474;-79
2022/07/09 02:48:27;;;;;;;4.93;3.60;;;;;;;21.26;83.61;99974.66;4991962;28;20037;-79
2022/07/09 02:50:53;;;;;;;5.88;3.40;;;;;;;21.37;82.76;99971.00;4991793;28;20114;-78
2022/07/09 02:53:19;;;;;;;5.20;3.75;;;;;;;21.34;82.79;99972.75;4975386;28;20033;-77
2022/07/09 02:55:45;;;;;;;6.10;3.85;;;;;;;20.75;84.17;99937.75;4969537;28;20058;-79
2022/07/09 02:58:11;;;;;;;6.18;3.67;;;;;;;20.93;84.54;99978.63;4952817;28;20152;-79
2022/07/09 03:00:41;;;;;;;5.40;3.90;;;;;;;20.76;84.82;99945.63;4974819;28;20019;-79
2022/07/09 03:03:06;;;;;;;;;;;;;;;21.06;84.92;99992.44;4975372;28;20042;-77
2022/07/09 03:05:32;;;;;;;5.50;3.47;;;;;;;21.08;84.71;99983.66;4974596;28;20337;-78
2022/07/09 03:07:58;;;;;;;5.78;3.55;;;;;;;20.53;84.65;99915.25;4957512;28;20606;-81
2022/07/09 03:10:23;;;;;;;7.00;3.83;;;;;;;20.92;85.69;99985.66;4974332;28;20498;-84
2022/07/09 03:12:49;;;;;;;5.00;3.72;;;;;;;21.01;85.09;99996.00;4974648;28;20031;-77
2022/07/09 03:15:16;;;;;;;7.53;4.05;;;;;;;21.00;84.38;99970.66;4974366;28;20045;-80
2022/07/09 03:17:42;;;;;;;7.95;3.80;;;;;;;20.99;84.56;99976.78;4974376;28;20022;-78
2022/07/09 03:20:09;;;;;;;6.18;3.65;;;;;;;21.16;84.53;99992.28;4974654;28;20105;-79
2022/07/09 03:22:35;;;;;;;8.20;3.80;;;;;;;20.82;85.54;99940.28;4974743;28;20029;-78
2022/07/09 03:25:01;;;;;;;6.47;3.80;;;;;;;21.17;84.17;99974.78;4974223;28;20031;-77
2022/07/09 03:27:26;;;;;;;5.47;4.13;;;;;;;21.07;84.05;99974.06;4974283;28;20027;-77
2022/07/09 03:29:52;;;;;;;7.75;3.85;;;;;;;20.66;83.88;99936.09;4957024;28;20467;-78
2022/07/09 03:32:17;;;;;;;5.15;3.88;;;;;;;20.80;84.85;99962.19;4973922;28;20033;-78
2022/07/09 03:34:42;;;;;;;6.70;3.80;;;;;;;20.61;84.40;99928.31;4973015;28;20045;-79
2022/07/09 03:37:08;;;;;;;5.28;3.30;;;;;;;20.75;84.67;99983.22;4974062;28;20050;-82
2022/07/09 03:39:34;;;;;;;5.97;3.80;;;;;;;20.72;84.76;99977.16;4973573;28;20027;-79
2022/07/09 03:42:00;;;;;;;6.18;4.00;;;;;;;20.57;84.10;99915.25;4974218;28;20035;-77
2022/07/09 03:44:25;;;;;;;5.10;3.80;;;;;;;21.03;82.45;99988.09;4973984;28;20023;-80
2022/07/09 03:46:51;;;;;;;4.78;3.53;;;;;;;20.96;83.56;99983.81;4956524;28;20086;-79
2022/07/09 03:49:16;;;;;;;6.43;3.67;;;;;;;20.97;82.93;99968.06;4988734;28;20110;-77
2022/07/09 03:51:43;;;;;;;4.78;3.30;;;;;;;21.07;83.06;99974.06;4956374;28;20035;-80
2022/07/09 03:54:09;;;;;;;6.43;3.42;;;;;;;21.21;83.06;99976.50;4954587;28;20475;-78
2022/07/09 03:56:35;;;;;;;4.38;3.60;;;;;;;21.22;81.56;99979.97;4954672;29;20083;-79
2022/07/09 03:59:00;;;;;;;4.18;3.20;;;;;;;21.20;80.97;99968.59;4954938;28;20031;-78
2022/07/09 04:01:26;;;;;;;6.35;3.20;;;;;;;21.33;81.26;99980.66;4954759;28;20031;-77
2022/07/09 04:03:51;;;;;;;5.38;3.45;;;;;;;21.19;79.87;99978.25;4954902;29;20031;-81
2022/07/09 04:06:17;;;;;;;4.13;3.53;;;;;;;20.75;79.48;99928.16;4969635;28;20030;-78
2022/07/09 04:08:42;;;;;;;10.05;3.90;;;;;;;21.13;78.69;99984.47;4954837;28;20039;-79
2022/07/09 04:11:08;;;;;;;7.63;4.00;;;;;;;20.97;78.53;99968.06;4954735;29;20538;-80
2022/07/09 04:13:33;;;;;;;7.97;3.53;;;;;;;21.15;77.97;99971.31;4954656;28;20472;-81
2022/07/09 04:15:58;;;;;;;4.57;3.08;;;;;;;21.45;77.81;99990.97;4954532;28;20443;-80
2022/07/09 04:18:24;;;;;;;7.75;3.40;;;;;;;20.73;75.69;99834.63;4954690;29;20054;-81
2022/07/09 04:20:50;;;;;;;6.07;3.10;;;;;;;21.60;77.41;99981.16;4954772;29;20030;-81
2022/07/09 04:23:16;;;;;;;8.35;3.17;;;;;;;21.50;75.47;99952.38;4954652;29;20114;-81
2022/07/09 04:25:41;;;;;;;6.32;3.60;;;;;;;21.60;74.98;99958.38;4954383;29;20077;-81
2022/07/09 04:28:07;;;;;;;7.22;3.20;;;;;;;21.87;75.56;99987.72;4953952;28;20038;-78
2022/07/09 04:30:32;;;;;;;4.60;2.95;;;;;;;21.97;74.38;99985.81;4953137;29;20035;-79
2022/07/09 04:33:00;;;;;;;6.65;3.17;;;;;;;21.98;73.02;99982.25;4951733;28;20495;-78
2022/07/09 04:35:26;;;;;;;4.90;2.80;;;;;;;21.93;73.34;99977.09;4954416;29;20114;-79
2022/07/09 04:37:51;;;;;;;7.47;3.17;;;;;;;21.99;73.94;99981.38;4952656;29;20126;-79
2022/07/09 04:40:17;;;;;;;5.45;2.50;;;;;;;21.73;75.05;99938.03;4952999;29;20035;-79
2022/07/09 04:42:42;;;;;;;7.85;3.08;;;;;;;22.04;74.57;99992.66;4954275;29;20035;-79
2022/07/09 04:45:08;;;;;;;7.15;2.90;;;;;;;22.18;73.62;100002.94;4954239;29;20114;-78
2022/07/09 04:47:34;;;;;;;5.20;2.58;;;;;;;22.14;73.32;99994.25;4954153;29;20035;-77
2022/07/09 04:49:59;;;;;;;4.28;2.88;;;;;;;22.12;72.70;99982.88;4954074;29;20035;-77
2022/07/09 04:52:26;;;;;;;4.10;2.90;;;;;;;22.20;73.25;99985.34;4953069;29;20082;-80
2022/07/09 04:54:53;;;;;;;10.02;3.33;;;;;;;22.20;73.76;99968.72;4949866;29;20106;-78
2022/07/09 04:57:19;;;;;;;5.25;3.35;;;;;;;22.49;75.19;100027.81;4953326;29;20039;-80
2022/07/09 04:59:44;;;;;;;5.30;3.10;;;;;;;22.36;76.93;100022.75;4965719;28;20039;-77
2022/07/09 05:02:10;;;;;;;5.32;3.20;;;;;;;22.16;78.79;100014.34;4948579;28;20019;-79
2022/07/09 05:04:35;;;;;;;6.57;3.15;;;;;;;21.86;79.28;100007.00;4953261;28;20036;-79
2022/07/09 05:07:01;;;;;;;4.97;3.45;;;;;;;21.80;81.28;100025.50;4968251;28;20455;-79
2022/07/09 05:09:26;;;;;;;4.60;3.25;;;;;;;21.31;82.84;99972.81;4953802;29;20023;-79
2022/07/09 05:11:52;;;;;;;9.05;4.03;;;;;;;21.11;85.86;99965.25;4953754;29;20027;-80
2022/07/09 05:14:18;;;;;;;9.10;4.13;;;;;;;21.03;88.19;99977.59;4953827;28;20023;-81
2022/07/09 05:16:44;;;;;;;7.47;4.03;;;;;;;20.73;89.62;99918.56;4948023;29;20027;-79
2022/07/09 05:19:11;;;;;;;8.57;3.92;;;;;;;21.02;90.24;100012.59;4953841;29;20501;-79
2022/07/09 05:21:38;;;;;;;7.28;4.45;;;;;;;20.77;92.28;99973.59;4952656;29;20082;-79
2022/07/09 05:24:05;;;;;;;10.60;4.55;;;;;;;20.63;93.20;99991.22;4930033;29;20049;-80
2022/07/09 05:26:31;;;;;;;11.32;4.25;;;;;;;20.60;95.00;99993.88;4930896;29;20032;-75
2022/07/09 05:28:57;;;;;;;10.25;4.93;;;;;;;20.67;96.29;100004.28;4928443;29;20103;-79
2022/07/09 05:31:22;;;;;;;7.40;4.35;;;;;;;20.61;95.04;99996.50;4929932;29;20536;-88
2022/07/09 05:33:48;;;;;;;7.18;4.18;;;;;;;20.60;95.83;99989.50;4913751;29;20044;-84
2022/07/09 05:36:13;;;;;;;10.02;4.40;;;;;;;20.67;96.69;99985.94;4930296;29;20487;-82
2022/07/09 05:38:39;;;;;;;10.88;4.35;;;;;;;20.83;94.75;99991.00;4949570;28;20446;-80
2022/07/09 05:41:04;;;;;;;8.68;4.18;;;;;;;20.90;93.64;99991.78;4950127;29;20114;-82
2022/07/09 05:43:30;;;;;;;8.82;4.10;;;;;;;20.97;96.20;99990.81;4943174;29;20081;-82
2022/07/09 05:45:55;;;;;;;9.63;4.10;;;;;;;20.94;94.36;99978.59;4949179;29;20105;-82
2022/07/09 05:48:21;;;;;;;8.20;4.03;;;;;;;20.51;93.47;99903.06;4949760;29;20038;-83
2022/07/09 05:50:46;;;;;;;7.85;4.20;;;;;;;21.08;93.95;99982.78;4949346;29;20093;-84
2022/07/09 05:53:12;;;;;;;6.25;3.78;;;;;;;21.29;92.25;100000.00;4949919;28;20426;-87
2022/07/09 05:55:37;;;;;;;9.73;4.40;;;;;;;20.96;90.83;99934.84;4953895;28;20093;-85
2022/07/09 05:58:02;;;;;;;9.43;4.10;;;;;;;20.97;92.22;99946.19;4954096;28;20069;-80
2022/07/09 06:00:28;;;;;;;6.15;4.03;;;;;;;21.12;94.57;99972.25;4966493;28;20390;-87
2022/07/09 06:02:54;;;;;;;8.43;4.05;;;;;;;21.25;95.65;99998.31;4967183;28;20189;-83
2022/07/09 06:05:19;;;;;;;11.27;4.53;;;;;;;21.29;94.26;99992.97;4968867;28;20034;-83
2022/07/09 06:07:46;;;;;;;6.38;4.30;;;;;;;21.12;96.78;99963.47;4971246;28;20046;-86
2022/07/09 06:10:13;;;;;;;9.50;4.20;;;;;;;20.97;94.85;99936.59;4949212;29;20050;-85
2022/07/09 06:12:40;;;;;;;6.22;3.78;;;;;;;21.17;94.70;99980.91;4949431;29;20071;-83
2022/07/09 06:15:06;;;;;;;9.35;4.13;;;;;;;21.16;95.43;99992.28;4948576;29;20070;-82
2022/07/09 06:17:31;;;;;;;5.82;3.53;;;;;;;21.19;93.85;99996.63;4949144;29;20062;-83
2022/07/09 06:19:56;;;;;;;6.55;4.00;;;;;;;20.98;94.96;99992.56;4932988;29;20079;-84
2022/07/09 06:22:22;;;;;;;8.77;3.90;;;;;;;20.66;93.99;99920.34;4921972;29;20044;-79
2022/07/09 06:24:48;;;;;;;9.07;4.07;;;;;;;20.74;93.71;99921.16;4925284;29;20043;-81
2022/07/09 06:27:13;;;;;;;8.63;4.90;;;;;;;21.26;92.48;99987.78;4936846;29;20050;-82
2022/07/09 06:29:39;;;;;;;6.00;3.90;;;;;;;20.74;91.98;99892.31;4941662;29;20475;-79
2022/07/09 06:32:05;;;;;;;5.63;4.03;;;;;;;21.17;93.03;99940.66;4942645;29;20549;-88
2022/07/09 06:34:31;;;;;;;6.88;3.95;;;;;;;21.41;91.62;99968.31;4938578;29;20032;-83
2022/07/09 06:36:56;;;;;;;8.25;4.25;;;;;;;21.55;91.53;99996.09;4909570;29;20060;-83
2022/07/09 06:42:06;;;;;;;10.65;5.13;;;;;;;21.33;93.78;99939.53;4947049;29;20055;-79
2022/07/09 06:44:33;;;;;;;11.20;5.15;;;;;;;21.68;95.90;99997.66;4949278;29;20031;-79
2022/07/09 06:46:59;;;;;;;7.03;4.50;;;;;;;21.70;99.63;99995.03;4929772;29;20036;-83
2022/07/09 06:49:26;;;;;;;7.32;4.68;;;;;;;21.34;100.00;99943.88;4929249;29;20052;-83
2022/07/09 06:51:51;;;;;;;6.90;4.70;;;;;;;21.53;99.78;99976.88;4945097;29;20024;-85
2022/07/09 06:54:17;;;;;;;7.47;4.50;;;;;;;21.39;100.00;99946.44;4947062;29;20031;-86
2022/07/09 06:56:42;;;;;;;10.48;4.55;;;;;;;21.53;100.00;99974.25;4965643;28;20520;-86
2022/07/09 06:59:08;;;;;;;5.13;4.03;;;;;;;21.47;100.00;99967.31;4949707;29;20035;-86
2022/07/09 07:01:33;;;;;;;5.57;4.50;;;;;;;21.34;100.00;99956.16;4950668;29;20023;-86
2022/07/09 07:03:59;;;;;;;8.25;4.70;;;;;;;21.44;100.00;99956.88;4965449;28;20687;-87
2022/07/09 07:06:24;;;;;;;6.20;4.63;;;;;;;21.52;100.00;99955.00;4931193;29;20031;-85
2022/07/09 07:08:50;;;;;;;6.95;5.13;;;;;;;21.68;100.00;99978.41;4965712;28;20059;-86
2022/07/09 07:11:16;;;;;;;7.30;4.25;;;;;;;21.54;98.20;99952.34;4933593;29;20438;-89
2022/07/09 07:13:41;;;;;;;17.15;7.50;;;;;;;21.84;100.00;99986.91;4933465;29;20550;-86
2022/07/09 07:16:07;;;;;;;16.25;6.88;;;;;;;21.77;98.54;99957.22;4919161;29;20094;-84
2022/07/09 07:18:33;;;;;;;10.98;5.20;;;;;;;21.85;97.85;99965.00;4946346;28;20080;-87
2022/07/09 07:20:58;;;;;;;6.50;4.40;;;;;;;21.97;96.52;99962.16;4946421;28;20044;-88
2022/07/09 07:23:24;;;;;;;5.75;4.72;;;;;;;22.08;95.20;99980.31;4930358;29;20036;-88
2022/07/09 07:25:49;;;;;;;6.82;4.55;;;;;;;21.62;96.79;99897.94;4933777;29;20554;-85
2022/07/09 07:28:15;;;;;;;10.38;4.68;;;;;;;22.13;97.18;99978.47;4918221;29;20024;-87
2022/07/09 07:30:40;;;;;;;5.82;4.22;;;;;;;22.12;94.56;99993.41;4932180;29;21580;-90
2022/07/09 07:33:06;;;;;;;8.25;4.60;;;;;;;22.05;95.86;99991.75;4922784;29;20044;-88
2022/07/09 07:35:31;;;;;;;5.70;4.72;;;;;;;22.08;97.40;99994.34;4933799;29;20043;-87
2022/07/09 07:37:59;;;;;;;6.93;5.10;;;;;;;22.08;98.45;99991.72;4950277;28;20146;-81
2022/07/09 07:40:24;;;;;;;7.85;4.45;;;;;;;22.12;97.03;100000.44;4939222;28;20052;-81
2022/07/09 07:42:50;;;;;;;8.60;5.20;;;;;;;21.99;97.77;99978.75;4952030;28;20035;-82
2022/07/09 07:45:16;;;;;;;7.75;4.35;;;;;;;21.97;96.07;99991.06;4932764;28;20066;-84
2022/07/09 07:47:41;;;;;;;6.50;4.82;;;;;;;21.77;98.03;99954.59;4932405;29;20028;-88
2022/07/09 07:50:07;;;;;;;8.68;4.70;;;;;;;22.11;94.63;99989.03;4913745;29;20777;-83
2022/07/09 07:52:33;;;;;;;6.13;4.60;;;;;;;22.12;93.50;99982.03;4931246;29;20476;-83
2022/07/09 07:54:58;;;;;;;7.30;4.70;;;;;;;21.64;94.02;99902.25;4932735;29;20120;-83
2022/07/09 07:57:24;;;;;;;6.28;5.07;;;;;;;22.09;96.22;99980.31;4932566;29;20044;-85
2022/07/09 07:59:49;;;;;;;7.45;4.30;;;;;;;22.17;94.82;99982.81;4913226;29;20534;-82
2022/07/09 08:02:15;;;;;;;9.00;4.35;;;;;;;22.16;94.15;99983.69;4884548;29;20092;-84
2022/07/09 08:04:40;;;;;;;5.93;4.43;;;;;;;22.13;93.03;99982.00;4894658;29;20048;-84
2022/07/09 08:07:06;;;;;;;10.52;4.55;;;;;;;22.25;94.23;99999.28;4894585;29;20556;-83
2022/07/09 08:09:33;;;;;;;7.15;4.63;;;;;;;22.24;94.28;99991.44;4894694;29;20033;-83
2022/07/09 08:11:59;;;;;;;7.28;4.20;;;;;;;22.28;95.91;99972.94;4923404;29;20082;-83
2022/07/09 08:14:25;;;;;;;6.45;4.63;;;;;;;22.22;93.24;99970.44;4916185;29;20131;-84
2022/07/09 08:16:50;;;;;;;6.40;4.00;;;;;;;22.38;93.02;99997.34;4921750;29;20075;-82
2022/07/09 08:19:16;;;;;;;6.93;4.65;;;;;;;22.26;93.46;99966.84;4959490;28;20047;-82
2022/07/09 08:21:41;;;;;;;11.20;4.55;;;;;;;22.37;93.61;99982.44;4955844;28;20132;-82
2022/07/09 08:24:09;;;;;;;8.55;4.80;;;;;;;22.24;95.23;99958.13;4955587;28;20027;-84
2022/07/09 08:26:34;;;;;;;9.25;4.78;;;;;;;22.34;95.05;99992.13;4955747;28;20106;-83
2022/07/09 08:29:00;;;;;;;8.35;4.63;;;;;;;22.35;93.99;99991.22;4988176;28;20209;-81
2022/07/09 08:31:25;;;;;;;6.90;4.30;;;;;;;21.89;93.05;99911.47;4974860;28;20043;-81
2022/07/09 08:33:51;;;;;;;8.98;4.20;;;;;;;22.35;92.53;99980.72;4973478;28;20026;-83
2022/07/09 08:36:17;;;;;;;9.80;4.90;;;;;;;22.16;93.13;99959.16;4958850;28;20046;-84
2022/07/09 08:38:43;;;;;;;7.20;4.40;;;;;;;22.33;93.04;99986.00;4972619;28;20113;-84
2022/07/09 08:41:09;;;;;;;9.98;4.40;;;;;;;22.03;92.70;99941.00;4955378;28;20050;-86
2022/07/09 08:43:38;;;;;;;9.70;4.38;;;;;;;22.03;92.54;99938.38;4946188;29;20066;-82
2022/07/09 08:46:05;;;;;;;6.30;4.10;;;;;;;22.17;92.66;99953.00;4936460;29;20035;-84
2022/07/09 08:48:34;;;;;;;4.90;4.10;;;;;;;21.95;91.78;99890.34;4931171;29;20036;-85
2022/07/09 08:51:01;;;;;;;5.18;4.00;;;;;;;22.44;90.29;99973.53;4930758;29;20073;-86
2022/07/09 08:53:27;;;;;;;6.63;4.60;;;;;;;22.41;90.85;99968.34;4932554;29;20043;-84
2022/07/09 08:55:54;;;;;;;8.55;4.72;;;;;;;22.51;91.70;99976.06;4953992;28;20110;-84
2022/07/09 08:58:19;;;;;;;8.07;4.40;;;;;;;22.54;91.65;99963.72;4932433;28;20070;-81
2022/07/09 09:00:48;;;;;;;7.50;4.18;;;;;;;22.53;91.10;99953.19;4933844;29;20047;-88
2022/07/09 09:03:14;;;;;;;6.97;4.73;;;;;;;22.72;92.79;99959.81;4924497;29;20211;-84
2022/07/09 09:05:39;;;;;;;6.53;4.00;;;;;;;22.69;90.42;99952.00;4914778;29;20122;-85
2022/07/09 09:08:19;;;;;;;7.00;4.03;;;;;;;22.77;92.12;99962.34;4918650;29;20506;-83
2022/07/09 09:10:48;;;;;;;5.82;4.55;;;;;;;22.41;88.71;99923.63;4930570;29;20117;-84
2022/07/09 09:13:16;;;;;;;9.18;4.43;;;;;;;22.67;90.70;99940.63;4930781;29;20039;-83
2022/07/09 09:15:42;;;;;;;7.03;4.50;;;;;;;22.96;92.67;99960.16;4924480;28;20034;-85
2022/07/09 09:18:07;;;;;;;5.10;3.88;;;;;;;22.94;87.59;99956.69;4949905;29;20109;-86
2022/07/09 09:20:33;;;;;;;6.32;3.63;;;;;;;23.00;86.28;99956.56;4916173;29;20214;-83
2022/07/09 09:23:02;;;;;;;5.07;3.92;;;;;;;23.02;84.67;99965.28;4931209;29;20443;-85
2022/07/09 09:25:28;;;;;;;8.20;3.90;;;;;;;23.05;87.30;99957.34;4914686;29;20511;-82
2022/07/09 09:27:58;;;;;;;7.60;4.10;;;;;;;22.99;86.05;99948.69;4911470;29;20428;-84
2022/07/09 09:30:25;;;;;;;6.05;3.80;;;;;;;23.05;85.14;99954.72;4911641;29;20036;-87
2022/07/09 09:32:59;;;;;;;5.78;4.00;;;;;;;22.86;85.13;99917.41;4911470;29;20032;-85
2022/07/09 09:35:26;;;;;;;5.50;4.15;;;;;;;22.89;85.91;99937.50;4911079;29;20396;-87
2022/07/09 09:37:52;;;;;;;8.10;4.38;;;;;;;23.14;86.95;99989.63;4926637;29;20062;-86
2022/07/09 09:40:17;;;;;;;6.70;4.30;;;;;;;22.99;87.79;99965.38;4911358;29;20044;-84
2022/07/09 09:42:45;;;;;;;7.03;4.43;;;;;;;23.09;87.21;99977.44;4911714;29;20104;-85
2022/07/09 09:45:14;;;;;;;6.18;4.13;;;;;;;22.90;86.75;99940.13;4911638;29;20048;-84
2022/07/09 09:47:39;;;;;;;7.28;4.30;;;;;;;23.07;87.86;99955.53;4895683;29;20043;-81
2022/07/09 09:50:08;;;;;;;6.25;4.28;;;;;;;23.16;88.18;99967.63;4911620;29;20043;-86
2022/07/09 09:52:36;;;;;;;8.15;4.57;;;;;;;23.31;88.64;99976.94;4911121;29;20071;-88
2022/07/09 09:55:04;;;;;;;6.57;4.32;;;;;;;23.49;90.45;99985.31;4922418;28;20134;-87
2022/07/09 09:57:30;;;;;;;7.45;4.28;;;;;;;23.59;88.54;99976.31;4952758;28;20027;-86
2022/07/09 09:59:56;;;;;;;5.50;4.65;;;;;;;23.81;87.38;99983.66;4928884;29;20079;-79
2022/07/09 10:02:23;;;;;;;5.60;4.25;;;;;;;23.85;84.95;99972.13;4933138;28;20478;-87
2022/07/09 10:04:49;;;;;;;8.10;4.55;;;;;;;23.92;86.19;99984.28;4922735;28;20388;-88
2022/07/09 10:07:15;;;;;;;9.55;4.45;;;;;;;23.94;85.62;99971.03;4949418;28;20050;-87
2022/07/09 10:09:51;;;;;;;7.68;4.57;;;;;;;24.08;86.05;99984.75;4949832;28;20031;-83
2022/07/09 10:12:30;;;;;;;7.90;4.78;;;;;;;24.15;87.85;99990.69;4965498;28;20042;-87
2022/07/09 10:14:56;;;;;;;7.43;4.85;;;;;;;24.18;86.02;99961.63;4953990;28;20036;-78
2022/07/09 10:17:24;;;;;;;9.77;5.22;;;;;;;24.26;85.83;99972.81;4930030;29;20423;-92
2022/07/09 10:19:55;;;;;;;6.93;4.50;;;;;;;23.99;82.91;99906.75;4946910;28;20035;-86
2022/07/09 10:22:43;;;;;;;6.15;4.55;;;;;;;24.25;83.68;99943.84;4954638;28;20518;-89
2022/07/09 10:25:11;;;;;;;11.88;4.75;;;;;;;24.53;80.09;99986.16;4945385;29;20707;-84
2022/07/09 10:27:48;;;;;;;5.60;4.15;;;;;;;24.55;79.82;99960.59;4954481;28;20030;-86
2022/07/09 10:30:30;;;;;;;6.70;3.90;;;;;;;24.66;76.19;99981.41;4971108;28;20070;-80
2022/07/09 10:33:10;;;;;;;5.88;3.83;;;;;;;24.55;74.57;99969.34;4952716;28;20046;-84
2022/07/09 10:35:50;;;;;;;5.85;4.00;;;;;;;24.64;75.19;99978.78;4934265;29;20160;-82
2022/07/09 10:38:17;;;;;;;6.18;4.30;;;;;;;24.29;76.52;99919.97;4913297;29;20051;-84
2022/07/09 10:40:45;;;;;;;6.00;3.92;;;;;;;24.70;76.71;99983.91;4930978;29;20028;-85
2022/07/09 10:43:12;;;;;;;6.43;4.05;;;;;;;24.58;75.96;99962.28;4947560;28;20038;-83
2022/07/09 10:45:38;;;;;;;5.25;3.80;;;;;;;24.48;77.83;99930.00;4933473;29;20036;-81
2022/07/09 10:48:06;;;;;;;8.85;3.72;;;;;;;24.68;76.16;99979.59;4932303;29;20059;-82
2022/07/09 10:50:37;;;;;;;5.85;3.33;;;;;;;24.68;70.44;99979.59;4933878;29;20012;-87
2022/07/09 10:53:03;;;;;;;6.32;4.07;;;;;;;24.69;72.92;99986.59;4963343;28;20735;-88
2022/07/09 10:55:29;;;;;;;7.53;3.88;;;;;;;24.54;73.69;99957.06;4922974;29;20038;-89
2022/07/09 10:57:56;;;;;;;6.30;3.78;;;;;;;24.60;74.06;99969.22;4917222;29;20475;-90
2022/07/09 11:00:24;;;;;;;6.80;3.58;;;;;;;24.55;70.83;99952.66;4951760;28;20027;-85
2022/07/09 11:03:01;;;;;;;8.25;3.00;;;;;;;24.58;67.47;99972.81;4921056;29;20036;-83
2022/07/09 11:05:28;;;;;;;8.15;3.63;;;;;;;24.44;68.60;99960.88;4935277;29;20107;-82
2022/07/09 11:07:55;;;;;;;5.78;3.45;;;;;;;24.50;69.39;99963.34;4936158;28;20045;-82
2022/07/09 11:10:21;;;;;;;6.38;3.38;;;;;;;24.28;67.60;99939.34;4955800;28;20036;-84
2022/07/09 11:12:50;;;;;;;4.47;3.35;;;;;;;24.36;68.08;99945.28;4919225;29;20126;-87
2022/07/09 11:15:19;;;;;;;7.85;3.28;;;;;;;24.23;67.09;99931.56;4953518;28;20459;-83
2022/07/09 11:18:01;;;;;;;10.25;3.67;;;;;;;24.18;69.30;99912.38;4969224;28;20047;-85
2022/07/09 11:20:28;;;;;;;6.18;3.33;;;;;;;24.32;70.54;99934.84;4936255;29;20048;-79
2022/07/09 11:22:56;;;;;;;4.22;3.10;;;;;;;24.17;69.28;99913.25;4931641;29;20575;-85
2022/07/09 11:25:24;;;;;;;5.65;3.58;;;;;;;24.49;68.54;99958.13;4931190;29;20512;-86
2022/07/09 11:27:51;;;;;;;4.32;3.60;;;;;;;24.49;70.49;99950.22;4916545;29;20043;-85
2022/07/09 11:30:17;;;;;;;4.32;3.15;;;;;;;24.20;70.19;99912.31;4914229;29;20043;-89
2022/07/09 11:32:45;;;;;;;4.78;3.38;;;;;;;24.43;69.99;99953.88;4930931;29;20035;-87